If you wish to contribute or participate in the discussions about articles you are invited to join SKYbrary as a registered user

 Actions

Malvinas Argentinas Airport

From SKYbrary Wiki

SAWH
Airport
ICAO: SAWH – IATA: USH
Summary
Name Malvinas Argentinas Airport
Region South America and Caribbean
Territory Argentina AR.gif
Location Ushuaia, Tierra del Fuego
Serving Ushuaia
Elevation 31.09 m
102 ft
102 ft31.09 m
Type medium airport
Coordinates 54° 50' 35.80" S, 68° 17' 44.70" W
Runways
Designator Length Width Surface ROPS
7/25 2800 m9,186.352 ft
45 m147.638 ft
CON yes/yes


METAR
Observation SAWH 181500Z 23007KT CAVOK 07/M03 Q1007
Station Ushuaia Aerodrome
Date/Time 18 October 2019 15:00:00
Wind direction 230°
Wind speed 07 kts
Lowest cloud amount clouds and visibility OK
Temperature 7°C
Dew point
Humidity 48%
QNH 1007 hPa
Weather condition n/a

Airport 4km 2.16 nm
4,000 m
13,123.36 ft
south of Ushuaia, Tierra del Fuego, Argentina.

Climatology

Tundra climate (Köppen climate classification ET).

Maps

Terrain

Loading map...

Airport Layout

Loading map...


Accidents & Serious Incidents at or in vicinity of SAWH

None on SKYbrary